Time;durP1;ratioP1;P1;durP2;ratioP2;P2;SDS_P1;SDS_P2;PMS_P1;PMS_P2;Temp;Humidity;BMP_temperature;BMP_pressure;BME280_temperature;BME280_humidity;BME280_pressure;Samples;Min_cycle;Max_cycle;Signal;HPM_P1;HPM_P2
2022/01/07 00:02:37;;;;;;;19.05;10.20;;;;;;;0.62;79.03;100636.05;2862684;83;21078;-75
2022/01/07 00:06:39;;;;;;;20.10;9.20;;;;;;;0.56;79.08;100625.33;2863113;81;21424;-75
2022/01/07 00:10:40;;;;;;;14.45;9.73;;;;;;;0.60;78.67;100619.55;2863058;83;21011;-75
2022/01/07 00:14:42;;;;;;;14.68;8.78;;;;;;;0.59;78.17;100615.22;2861933;83;21007;-75
2022/01/07 00:18:44;;;;;;;19.57;12.40;;;;;;;0.63;77.92;100615.06;2860447;83;21500;-75
2022/01/07 00:22:48;;;;;;;16.48;8.70;;;;;;;0.67;77.40;100609.24;2862164;83;21074;-75
2022/01/07 00:26:50;;;;;;;10.65;6.75;;;;;;;0.66;76.65;100612.33;2861968;83;21055;-74
2022/01/07 00:30:51;;;;;;;8.23;5.67;;;;;;;0.59;76.39;100609.54;2861060;82;21039;-75
2022/01/07 00:34:53;;;;;;;10.75;5.55;;;;;;;0.56;75.93;100610.93;2860351;83;21607;-74
2022/01/07 00:38:54;;;;;;;9.23;4.55;;;;;;;0.52;75.41;100608.02;2860323;83;20960;-75
2022/01/07 00:42:56;;;;;;;10.30;5.78;;;;;;;0.45;74.75;100607.38;2860471;83;21046;-75
2022/01/07 00:46:57;;;;;;;15.38;6.10;;;;;;;0.41;74.81;100604.47;2860161;83;21067;-75
2022/01/07 00:50:59;;;;;;;11.05;7.25;;;;;;;0.36;74.78;100609.02;2860065;82;21547;-75
2022/01/07 00:55:02;;;;;;;10.65;5.65;;;;;;;0.34;75.10;100610.84;2860634;83;21043;-75
2022/01/07 00:59:03;;;;;;;11.33;4.78;;;;;;;0.35;75.14;100615.16;2862366;83;21026;-75
2022/01/07 01:03:05;;;;;;;11.63;5.85;;;;;;;0.33;74.96;100615.67;2862910;83;21331;-76
2022/01/07 01:07:07;;;;;;;6.42;4.92;;;;;;;0.36;74.41;100615.09;2862725;83;21031;-75
2022/01/07 01:11:08;;;;;;;14.35;5.90;;;;;;;0.35;73.89;100618.62;2862867;83;21522;-77
2022/01/07 01:15:13;;;;;;;10.30;6.15;;;;;;;0.40;73.38;100612.80;2862910;83;21034;-75
2022/01/07 01:19:15;;;;;;;17.95;5.75;;;;;;;0.41;72.78;100607.09;2862860;83;21047;-74
2022/01/07 01:23:17;;;;;;;8.10;5.08;;;;;;;0.39;72.00;100608.91;2862984;83;22120;-75
2022/01/07 01:27:18;;;;;;;17.48;7.12;;;;;;;0.30;70.97;100611.38;2860965;83;21038;-75
2022/01/07 01:31:21;;;;;;;10.72;6.65;;;;;;;0.27;70.40;100607.09;2860527;83;20997;-75
2022/01/07 01:35:23;;;;;;;14.98;5.87;;;;;;;0.24;69.24;100603.28;2860464;83;21027;-75
2022/01/07 01:39:24;;;;;;;12.37;6.87;;;;;;;0.27;68.32;100602.34;2860690;83;21015;-76
2022/01/07 01:43:26;;;;;;;13.25;5.80;;;;;;;0.31;68.69;100600.01;2860534;83;21063;-76
2022/01/07 01:47:27;;;;;;;8.53;4.62;;;;;;;0.28;68.69;100597.50;2860465;82;21543;-75
2022/01/07 01:51:29;;;;;;;14.63;6.90;;;;;;;0.28;68.53;100597.03;2863402;82;21082;-75
2022/01/07 01:55:31;;;;;;;9.88;5.62;;;;;;;0.26;68.65;100601.94;2868150;83;21062;-75
2022/01/07 01:59:32;;;;;;;8.98;4.65;;;;;;;0.26;68.26;100590.16;2868356;83;21024;-75
2022/01/07 02:03:34;;;;;;;8.30;4.17;;;;;;;0.18;67.48;100598.70;2868329;83;21046;-75
2022/01/07 02:07:39;;;;;;;9.13;3.92;;;;;;;0.11;67.12;100593.69;2867726;83;21575;-75
2022/01/07 02:11:40;;;;;;;6.50;4.60;;;;;;;0.05;67.26;100594.34;2867653;83;21054;-75
2022/01/07 02:15:42;;;;;;;8.85;4.65;;;;;;;0.09;67.69;100591.58;2867683;83;21031;-75
2022/01/07 02:19:43;;;;;;;8.85;5.05;;;;;;;0.11;68.17;100597.61;2867928;83;21030;-74
2022/01/07 02:23:45;;;;;;;5.72;3.87;;;;;;;0.07;68.48;100596.01;2868140;83;21070;-75
2022/01/07 02:27:47;;;;;;;12.18;3.77;;;;;;;0.13;68.97;100591.88;2867591;83;21039;-74
2022/01/07 02:31:50;;;;;;;10.82;3.37;;;;;;;0.14;69.20;100585.73;2867752;83;21030;-74
2022/01/07 02:35:51;;;;;;;6.25;4.15;;;;;;;0.08;69.46;100584.64;2867655;83;21086;-74
2022/01/07 02:39:54;;;;;;;7.62;4.33;;;;;;;0.06;69.48;100586.45;2867925;83;20963;-74
2022/01/07 02:43:55;;;;;;;17.82;4.37;;;;;;;0.07;69.51;100586.85;2947467;80;21023;-74
2022/01/07 02:47:58;;;;;;;7.53;4.65;;;;;;;0.09;69.86;100579.80;2915943;81;21042;-74
2022/01/07 02:52:00;;;;;;;8.38;3.87;;;;;;;0.01;70.09;100583.58;2886952;82;21020;-74
2022/01/07 02:56:02;;;;;;;9.00;4.83;;;;;;;0.03;70.27;100582.64;2860363;83;21512;-74
2022/01/07 03:00:06;;;;;;;8.33;4.28;;;;;;;0.00;70.52;100584.05;2860459;83;21003;-74
2022/01/07 03:04:09;;;;;;;5.15;3.50;;;;;;;-0.08;70.82;100576.89;2860986;83;21106;-73
2022/01/07 03:08:11;;;;;;;4.17;3.33;;;;;;;-0.08;70.91;100575.15;2860584;83;20999;-73
2022/01/07 03:12:12;;;;;;;9.43;5.33;;;;;;;-0.17;71.16;100571.07;2860365;82;21078;-73
2022/01/07 03:16:14;;;;;;;5.03;4.22;;;;;;;-0.15;71.40;100569.69;2860428;83;21003;-74
2022/01/07 03:20:18;;;;;;;10.75;4.78;;;;;;;-0.12;71.41;100570.89;2860317;83;21011;-74
2022/01/07 03:24:20;;;;;;;6.62;3.83;;;;;;;-0.21;71.60;100564.20;2860731;82;21064;-73
2022/01/07 03:28:22;;;;;;;6.67;4.35;;;;;;;-0.17;71.69;100563.66;2860432;82;21086;-74
2022/01/07 03:32:24;;;;;;;5.72;4.12;;;;;;;-0.19;71.99;100570.27;2860299;83;21079;-74
2022/01/07 03:36:26;;;;;;;5.25;3.42;;;;;;;-0.21;72.31;100561.59;2860307;82;21051;-74
2022/01/07 03:40:27;;;;;;;8.30;3.95;;;;;;;-0.20;72.38;100555.92;2860440;83;21027;-74
2022/01/07 03:44:29;;;;;;;7.95;3.98;;;;;;;-0.18;72.35;100551.50;2860698;83;21110;-74
2022/01/07 03:48:30;;;;;;;6.05;3.62;;;;;;;-0.22;72.67;100557.73;2850555;83;21021;-74
2022/01/07 03:52:32;;;;;;;10.28;4.20;;;;;;;-0.29;73.03;100547.92;2895312;81;20978;-74
2022/01/07 03:56:35;;;;;;;10.78;4.03;;;;;;;-0.25;73.11;100552.14;2860308;83;21039;-74
2022/01/07 04:00:40;;;;;;;6.70;3.80;;;;;;;-0.25;73.11;100552.14;2860393;83;20998;-74
2022/01/07 04:04:42;;;;;;;15.32;4.47;;;;;;;-0.26;73.25;100555.66;2860653;83;21583;-76
2022/01/07 04:08:43;;;;;;;6.20;4.25;;;;;;;-0.21;73.14;100552.91;2860426;83;21023;-75
2022/01/07 04:12:45;;;;;;;7.33;4.55;;;;;;;-0.27;73.39;100552.65;2860473;83;21011;-75
2022/01/07 04:16:46;;;;;;;6.20;3.83;;;;;;;-0.30;73.81;100550.14;2860122;82;21520;-74
2022/01/07 04:20:48;;;;;;;10.18;5.60;;;;;;;-0.25;73.75;100556.53;2885946;81;21058;-78
2022/01/07 04:24:49;;;;;;;6.28;4.20;;;;;;;-0.22;73.77;100563.80;2919051;81;21023;-75
2022/01/07 04:28:51;;;;;;;13.10;6.22;;;;;;;-0.26;74.28;100544.37;2917343;81;20956;-75
2022/01/07 04:32:54;;;;;;;8.65;5.10;;;;;;;-0.23;74.18;100551.64;2917587;80;21027;-78
2022/01/07 04:36:56;;;;;;;7.45;4.80;;;;;;;-0.24;74.43;100550.40;2902731;81;21057;-78
2022/01/07 04:40:58;;;;;;;13.28;5.47;;;;;;;-0.24;74.35;100549.93;2864587;83;21019;-78
2022/01/07 04:44:59;;;;;;;10.85;4.37;;;;;;;-0.24;74.52;100548.63;2864932;83;21021;-76
2022/01/07 04:49:02;;;;;;;8.95;5.10;;;;;;;-0.20;74.50;100545.47;2864676;83;21032;-76
2022/01/07 04:53:04;;;;;;;11.75;5.15;;;;;;;-0.27;74.41;100512.13;2911073;80;21005;-77
2022/01/07 04:57:06;;;;;;;10.08;4.50;;;;;;;-0.13;74.58;100542.20;2951383;80;21041;-78
2022/01/07 05:01:08;;;;;;;8.73;5.17;;;;;;;-0.19;74.97;100534.97;2951414;80;21017;-78
2022/01/07 05:05:11;;;;;;;8.20;6.85;;;;;;;-0.21;75.38;100528.91;2952531;80;20987;-72
2022/01/07 05:09:16;;;;;;;9.98;5.70;;;;;;;-0.22;75.42;100522.44;2952800;80;20960;-70
2022/01/07 05:13:18;;;;;;;11.63;6.87;;;;;;;-0.23;75.81;100511.11;2952792;80;20983;-73
2022/01/07 05:17:19;;;;;;;9.65;6.80;;;;;;;-0.24;75.99;100505.48;2953614;80;20980;-73
2022/01/07 05:21:21;;;;;;;12.23;7.12;;;;;;;-0.24;75.69;100500.25;2953534;80;21070;-73
2022/01/07 05:25:22;;;;;;;8.35;5.58;;;;;;;-0.20;75.74;100501.85;2954867;79;21431;-70
2022/01/07 05:29:25;;;;;;;12.00;6.92;;;;;;;-0.16;75.74;100497.38;2954958;79;20999;-70
2022/01/07 05:33:27;;;;;;;10.48;7.90;;;;;;;-0.14;75.96;100487.72;2955268;80;21602;-70
2022/01/07 05:37:28;;;;;;;19.95;9.40;;;;;;;-0.17;76.33;100478.68;2955198;80;21524;-70
2022/01/07 05:41:30;;;;;;;12.95;7.62;;;;;;;-0.12;76.09;100483.77;2954966;79;21281;-70
2022/01/07 05:45:31;;;;;;;15.30;7.95;;;;;;;-0.14;76.17;100481.19;2955085;80;21563;-70
2022/01/07 05:49:33;;;;;;;12.75;8.38;;;;;;;-0.11;76.12;100475.01;2955059;80;20971;-71
2022/01/07 05:53:34;;;;;;;11.83;7.80;;;;;;;-0.01;75.85;100477.69;2925445;80;21034;-71
2022/01/07 05:57:37;;;;;;;12.95;9.15;;;;;;;-0.02;76.20;100478.59;2905948;82;20991;-71
2022/01/07 06:01:38;;;;;;;11.57;8.45;;;;;;;0.01;76.23;100487.67;2886116;82;21011;-70
2022/01/07 06:05:40;;;;;;;15.93;9.73;;;;;;;0.09;76.16;100479.53;2856501;83;21014;-71
2022/01/07 06:09:41;;;;;;;16.80;8.83;;;;;;;0.07;76.11;100479.60;2856575;83;21018;-71
2022/01/07 06:13:43;;;;;;;11.83;8.13;;;;;;;0.15;75.93;100481.95;2856442;83;20986;-71
2022/01/07 06:17:44;;;;;;;15.55;8.10;;;;;;;0.18;75.87;100495.36;2856340;83;20959;-71
2022/01/07 06:21:46;;;;;;;12.43;8.43;;;;;;;0.21;75.50;100494.80;2855914;83;21053;-71
2022/01/07 06:25:49;;;;;;;14.23;9.48;;;;;;;0.21;75.36;100492.66;2856613;83;21034;-71
2022/01/07 06:29:51;;;;;;;15.45;9.33;;;;;;;0.20;75.26;100492.27;2856409;83;21018;-71
2022/01/07 06:33:52;;;;;;;13.13;8.05;;;;;;;0.21;75.20;100488.73;2856523;83;21002;-71
2022/01/07 06:37:54;;;;;;;18.02;8.53;;;;;;;0.21;75.26;100484.81;2856390;83;21030;-71
2022/01/07 06:41:58;;;;;;;13.22;8.08;;;;;;;0.20;75.15;100487.86;2856420;83;20971;-71
2022/01/07 06:46:00;;;;;;;11.70;8.58;;;;;;;0.22;75.09;100488.66;2856631;83;21014;-70
2022/01/07 06:50:03;;;;;;;12.10;6.53;;;;;;;0.25;74.99;100476.77;2856951;83;21002;-71
2022/01/07 06:54:04;;;;;;;11.18;7.05;;;;;;;0.18;74.86;100487.51;2856877;81;21050;-70
2022/01/07 06:58:06;;;;;;;15.85;9.10;;;;;;;0.16;75.34;100477.55;2856713;83;21010;-71
2022/01/07 07:02:08;;;;;;;19.05;9.40;;;;;;;0.31;74.91;100482.72;2856510;83;21593;-71
2022/01/07 07:06:12;;;;;;;16.80;10.98;;;;;;;0.26;75.17;100481.56;2856787;83;21017;-71
2022/01/07 07:10:14;;;;;;;21.10;10.90;;;;;;;0.36;74.76;100473.77;2856792;83;20970;-71
2022/01/07 07:14:16;;;;;;;14.60;7.92;;;;;;;0.37;74.87;100473.33;2856605;83;21018;-71
2022/01/07 07:18:17;;;;;;;20.75;11.18;;;;;;;0.33;75.04;100478.28;2856774;83;21034;-70
2022/01/07 07:22:19;;;;;;;22.40;12.55;;;;;;;0.30;75.12;100467.45;2856586;83;21054;-71
2022/01/07 07:26:21;;;;;;;17.32;10.53;;;;;;;0.36;74.58;100460.68;2858353;82;21026;-71
2022/01/07 07:30:23;;;;;;;20.77;11.45;;;;;;;0.42;74.53;100464.41;2905087;82;20982;-71
2022/01/07 07:38:41;;;;;;;11.40;6.67;;;;;;;0.52;74.06;100454.89;2905214;82;20991;-71
2022/01/07 07:42:42;;;;;;;19.67;9.03;;;;;;;0.55;73.98;100463.48;2906216;82;21038;-70
2022/01/07 07:46:44;;;;;;;13.30;6.97;;;;;;;0.62;74.21;100462.81;2906043;82;20975;-70
2022/01/07 07:50:46;;;;;;;16.75;9.08;;;;;;;0.69;74.18;100459.52;2906492;81;21010;-70
2022/01/07 07:54:48;;;;;;;14.20;8.80;;;;;;;0.69;74.04;100455.58;2944221;79;21003;-70
2022/01/07 07:58:50;;;;;;;10.68;8.33;;;;;;;0.75;73.85;100451.85;2954993;80;21054;-70
2022/01/07 08:02:51;;;;;;;20.15;10.08;;;;;;;0.83;73.69;100449.81;2953748;80;21019;-71
2022/01/07 08:06:53;;;;;;;15.72;8.73;;;;;;;0.82;73.82;100446.80;2953626;80;21055;-70
2022/01/07 08:10:59;;;;;;;18.45;10.13;;;;;;;0.85;73.64;100444.05;2955071;80;20972;-70
2022/01/07 08:19:14;;;;;;;19.12;10.98;;;;;;;0.97;73.27;100451.41;2952833;80;21003;-70
2022/01/07 08:23:16;;;;;;;17.57;10.65;;;;;;;0.95;73.11;100451.09;2952975;80;20991;-70
2022/01/07 08:27:21;;;;;;;12.85;9.10;;;;;;;1.01;73.11;100448.70;2925956;80;20992;-70
2022/01/07 08:35:37;;;;;;;12.55;8.38;;;;;;;1.08;72.84;100444.91;2952815;80;20972;-70
2022/01/07 08:39:39;;;;;;;12.75;7.28;;;;;;;1.16;72.58;100451.16;2926733;80;21062;-71
2022/01/07 08:43:40;;;;;;;23.27;10.05;;;;;;;1.17;72.69;100452.39;2955175;80;21012;-71
2022/01/07 08:47:42;;;;;;;22.48;10.68;;;;;;;1.19;72.49;100451.90;2955344;80;21472;-71
2022/01/07 08:51:44;;;;;;;23.07;11.08;;;;;;;1.25;72.18;100452.95;2954205;80;21050;-70
2022/01/07 08:55:46;;;;;;;15.05;10.40;;;;;;;1.37;72.27;100449.41;2954339;80;20995;-70
2022/01/07 08:59:49;;;;;;;21.52;10.90;;;;;;;1.37;72.14;100438.94;2953780;80;20993;-70
2022/01/07 09:03:51;;;;;;;28.30;13.48;;;;;;;1.40;71.90;100441.45;2952787;80;21027;-70
2022/01/07 09:07:53;;;;;;;21.23;12.90;;;;;;;1.58;71.92;100448.16;2954312;80;21007;-70
2022/01/07 09:11:55;;;;;;;14.38;12.13;;;;;;;1.74;71.62;100441.33;2954847;79;21587;-70
2022/01/07 09:15:57;;;;;;;17.42;12.47;;;;;;;1.90;71.14;100434.13;2955252;79;20987;-70
2022/01/07 09:19:59;;;;;;;20.27;13.13;;;;;;;2.07;70.95;100424.22;2952351;80;20995;-70
2022/01/07 09:24:00;;;;;;;15.98;11.35;;;;;;;2.19;69.92;100426.28;2954200;80;21019;-71
2022/01/07 09:28:05;;;;;;;17.90;9.43;;;;;;;2.30;69.61;100428.42;2953427;80;20988;-70
2022/01/07 09:32:07;;;;;;;22.25;11.55;;;;;;;2.35;69.50;100426.91;2953576;80;21007;-70
2022/01/07 09:36:09;;;;;;;20.12;10.25;;;;;;;2.56;69.44;100411.95;2954947;80;21019;-70
2022/01/07 09:40:12;;;;;;;12.70;7.50;;;;;;;2.68;68.92;100404.80;2955229;80;21034;-70
2022/01/07 09:44:14;;;;;;;9.80;7.03;;;;;;;2.86;68.33;100412.73;2904270;81;20972;-70
2022/01/07 09:48:15;;;;;;;13.50;7.80;;;;;;;3.04;67.43;100407.05;2904551;81;21058;-70
2022/01/07 09:52:17;;;;;;;14.25;8.58;;;;;;;3.13;67.72;100405.30;2931110;79;21024;-70
2022/01/07 09:56:19;;;;;;;17.48;8.08;;;;;;;3.16;67.47;100402.99;2958471;80;20976;-70
2022/01/07 10:00:21;;;;;;;10.60;6.40;;;;;;;3.19;67.74;100391.01;2958204;80;20992;-70
2022/01/07 10:04:38;;;;;;;20.75;6.95;;;;;;;3.20;67.75;100397.09;2961134;80;20991;-70
2022/01/07 10:08:40;;;;;;;15.23;7.72;;;;;;;3.18;68.12;100405.08;2958212;80;21058;-71
2022/01/07 10:13:06;;;;;;;5.97;4.85;;;;;;;3.18;68.64;100401.59;2958388;80;21011;-70
2022/01/07 10:17:07;;;;;;;10.15;5.28;;;;;;;3.18;68.64;100395.88;2958407;80;20999;-70
2022/01/07 10:21:11;;;;;;;11.05;7.60;;;;;;;3.16;69.32;100382.41;2958187;80;21054;-70
2022/01/07 10:25:19;;;;;;;13.32;8.43;;;;;;;3.31;68.39;100374.22;2959414;80;20999;-70
2022/01/07 10:29:32;;;;;;;18.23;8.60;;;;;;;3.37;68.06;100371.30;2960091;80;21028;-70
2022/01/07 10:33:39;;;;;;;7.75;6.35;;;;;;;3.48;68.36;100370.27;2865480;83;21062;-70
2022/01/07 10:38:00;;;;;;;12.90;7.42;;;;;;;3.56;67.70;100371.20;2965611;80;21082;-71
2022/01/07 10:42:03;;;;;;;5.95;4.47;;;;;;;3.60;67.86;100372.73;2966134;80;21015;-71
2022/01/07 10:46:21;;;;;;;13.08;6.22;;;;;;;3.46;67.78;100369.98;2965563;80;20987;-71
2022/01/07 10:50:25;;;;;;;16.73;7.25;;;;;;;3.40;68.28;100363.25;2965916;80;20984;-71
2022/01/07 10:54:27;;;;;;;12.18;7.12;;;;;;;3.31;69.24;100366.33;2932698;80;29689;-71
2022/01/07 10:58:33;;;;;;;6.45;4.65;;;;;;;3.31;69.65;100367.20;2948309;80;21036;-71
2022/01/07 11:02:35;;;;;;;10.90;4.00;;;;;;;3.35;70.07;100369.22;2905802;79;21001;-72
2022/01/07 11:06:38;;;;;;;13.55;6.95;;;;;;;3.38;69.87;100354.59;2950561;80;21004;-71
2022/01/07 11:10:42;;;;;;;17.98;8.38;;;;;;;3.41;69.21;100348.69;2950882;80;20957;-71
2022/01/07 11:14:44;;;;;;;12.65;6.87;;;;;;;3.42;68.72;100346.92;2948781;80;20970;-71
2022/01/07 11:18:48;;;;;;;8.28;6.15;;;;;;;3.46;68.08;100348.47;2945707;80;21043;-70
2022/01/07 11:22:54;;;;;;;8.33;5.72;;;;;;;3.50;68.41;100351.80;2947979;79;21023;-71
2022/01/07 11:27:15;;;;;;;17.40;8.53;;;;;;;3.51;68.34;100337.23;2948750;79;21054;-71
2022/01/07 11:31:16;;;;;;;10.30;6.75;;;;;;;3.51;68.22;100329.83;2944052;80;21031;-70
2022/01/07 11:35:23;;;;;;;18.80;7.33;;;;;;;3.52;68.31;100323.16;2945008;80;20999;-74
2022/01/07 11:39:28;;;;;;;14.33;7.50;;;;;;;3.62;68.42;100324.01;2943316;80;21383;-76
2022/01/07 11:43:39;;;;;;;13.38;9.40;;;;;;;3.66;68.75;100318.97;2917242;80;21572;-76
2022/01/07 11:47:50;;;;;;;13.83;10.08;;;;;;;3.68;68.83;100305.27;2946180;80;20983;-72
2022/01/07 11:51:51;;;;;;;21.87;10.55;;;;;;;3.69;69.10;100299.93;2947044;80;21039;-75
2022/01/07 11:55:59;;;;;;;12.03;8.58;;;;;;;3.75;68.89;100298.77;2962796;79;20985;-75
2022/01/07 12:00:01;;;;;;;21.48;11.30;;;;;;;3.78;68.87;100288.06;3000204;79;21028;-73
2022/01/07 12:04:19;;;;;;;18.90;10.43;;;;;;;3.78;68.50;100284.57;3000101;79;22197;-75
2022/01/07 12:08:20;;;;;;;22.93;13.88;;;;;;;3.95;68.73;100277.94;2999933;79;20989;-74
2022/01/07 12:12:27;;;;;;;17.27;9.65;;;;;;;4.02;68.53;100274.51;2975416;79;21029;-72
2022/01/07 12:16:32;;;;;;;19.50;11.30;;;;;;;4.13;68.22;100269.52;2899082;81;21041;-75
2022/01/07 12:20:49;;;;;;;17.67;11.70;;;;;;;4.18;67.87;100269.72;2999146;79;20945;-75
2022/01/07 12:24:59;;;;;;;13.03;8.70;;;;;;;4.28;67.67;100262.54;2999414;79;21047;-75
2022/01/07 12:29:01;;;;;;;13.28;7.25;;;;;;;4.34;67.79;100258.72;3000004;79;21009;-75
2022/01/07 12:33:05;;;;;;;6.70;4.85;;;;;;;4.38;68.02;100244.44;2999448;79;21055;-72
2022/01/07 12:37:10;;;;;;;10.95;5.42;;;;;;;4.38;67.29;100247.52;3013698;78;20981;-75
2022/01/07 12:41:12;;;;;;;10.82;7.22;;;;;;;4.36;67.65;100243.67;3013942;79;20973;-75
2022/01/07 12:45:21;;;;;;;13.08;5.53;;;;;;;4.36;67.38;100237.09;3014039;79;21509;-75
2022/01/07 12:49:42;;;;;;;6.45;5.12;;;;;;;4.40;66.66;100233.34;3000583;78;21016;-75
2022/01/07 12:54:03;;;;;;;9.70;5.95;;;;;;;4.34;65.73;100220.53;2956812;79;21057;-73
2022/01/07 12:58:06;;;;;;;5.15;3.50;;;;;;;4.35;65.46;100216.09;2959633;80;20992;-75
2022/01/07 13:02:08;;;;;;;8.20;5.10;;;;;;;4.36;65.46;100212.07;2958792;80;21003;-74
2022/01/07 13:06:09;;;;;;;13.00;5.75;;;;;;;4.48;66.18;100201.75;2958061;80;21019;-74
2022/01/07 13:10:12;;;;;;;7.53;5.22;;;;;;;4.51;66.36;100199.80;2957123;80;21050;-75
2022/01/07 13:14:14;;;;;;;12.68;5.72;;;;;;;4.51;65.35;100198.48;2931187;80;21041;-74
2022/01/07 13:18:31;;;;;;;13.85;8.43;;;;;;;4.55;64.24;100205.26;2956903;80;21058;-74
2022/01/07 13:22:33;;;;;;;12.93;7.25;;;;;;;4.60;64.75;100195.78;2954570;80;21074;-75
2022/01/07 13:26:38;;;;;;;21.48;10.90;;;;;;;4.60;64.63;100191.83;2946722;80;20973;-76
2022/01/07 13:30:46;;;;;;;23.80;14.78;;;;;;;4.66;65.16;100188.82;2841711;83;20977;-71
2022/01/07 13:34:47;;;;;;;21.40;12.58;;;;;;;4.51;65.39;100188.39;2914329;81;20952;-73
2022/01/07 13:38:59;;;;;;;38.40;18.57;;;;;;;4.48;66.11;100185.94;2948124;80;20974;-72
2022/01/07 13:43:13;;;;;;;35.43;17.50;;;;;;;4.41;67.02;100181.04;2909154;80;21046;-72
2022/01/07 13:47:28;;;;;;;18.87;10.48;;;;;;;4.28;66.21;100168.19;2904226;80;20949;-73
2022/01/07 13:51:31;;;;;;;196.10;106.70;;;;;;;4.26;66.21;100168.75;2910540;80;21037;-73
2022/01/07 13:55:33;;;;;;;145.85;72.05;;;;;;;4.10;67.06;100165.67;2912152;81;21064;-73
2022/01/07 13:59:49;;;;;;;60.85;33.65;;;;;;;3.96;68.02;100157.73;2912083;81;21004;-73
2022/01/07 14:03:52;;;;;;;73.07;35.55;;;;;;;3.92;67.76;100161.44;2911466;81;21032;-69
2022/01/07 14:07:54;;;;;;;76.15;32.00;;;;;;;3.84;68.95;100167.16;2912746;81;21032;-70
2022/01/07 14:12:03;;;;;;;63.63;27.82;;;;;;;3.72;68.61;100159.45;2911911;80;21499;-69
2022/01/07 14:16:05;;;;;;;73.00;28.12;;;;;;;3.73;67.87;100154.58;2911057;80;21090;-70
2022/01/07 14:20:09;;;;;;;34.53;15.00;;;;;;;3.56;69.21;100141.05;2910315;80;21098;-70
2022/01/07 14:24:11;;;;;;;27.67;16.30;;;;;;;3.42;68.98;100138.70;2911824;80;21036;-70
2022/01/07 14:28:14;;;;;;;38.40;19.73;;;;;;;3.40;68.39;100130.05;2912381;80;21088;-70
2022/01/07 14:32:16;;;;;;;29.15;11.83;;;;;;;3.37;68.10;100124.13;2911591;81;21039;-70
2022/01/07 14:36:18;;;;;;;19.85;12.18;;;;;;;3.28;68.49;100117.09;2911586;80;21209;-68
2022/01/07 14:40:20;;;;;;;33.35;18.65;;;;;;;3.19;68.62;100121.55;2912578;81;21020;-68
2022/01/07 14:44:22;;;;;;;18.20;9.75;;;;;;;3.15;68.41;100113.46;2912392;80;21032;-68
2022/01/07 14:48:29;;;;;;;22.90;13.75;;;;;;;3.21;68.10;100111.80;2912185;80;21016;-68
2022/01/07 14:52:28;;;;;;;22.45;10.85;;;;;;;3.22;68.16;100117.89;2897287;81;21030;-68
2022/01/07 14:56:29;;;;;;;14.07;8.35;;;;;;;3.23;67.73;100118.27;2913059;81;21048;-70
2022/01/07 15:00:31;;;;;;;27.20;12.43;;;;;;;3.14;68.24;100113.05;2912998;81;21056;-70
2022/01/07 15:04:33;;;;;;;29.20;12.25;;;;;;;3.21;68.05;100109.62;2912686;81;21095;-71
2022/01/07 15:08:35;;;;;;;16.20;9.73;;;;;;;3.18;68.40;100118.55;2912017;81;21035;-71
2022/01/07 15:12:44;;;;;;;25.57;14.63;;;;;;;3.12;68.71;100117.54;2911903;81;21634;-70
2022/01/07 15:16:46;;;;;;;23.02;14.50;;;;;;;3.17;68.95;100119.93;2911378;81;21389;-70
2022/01/07 15:20:44;;;;;;;16.30;10.82;;;;;;;3.16;68.95;100107.27;2907436;80;21389;-72
2022/01/07 15:24:46;;;;;;;25.85;13.43;;;;;;;3.08;68.80;100111.63;2908674;80;21084;-72
2022/01/07 15:28:48;;;;;;;18.92;11.03;;;;;;;3.18;68.89;100109.34;2910841;80;20980;-69
2022/01/07 15:32:50;;;;;;;22.65;13.28;;;;;;;3.17;68.73;100105.02;2828558;83;20976;-70
2022/01/07 15:36:52;;;;;;;31.57;17.62;;;;;;;3.09;68.79;100097.99;2917135;80;21009;-70
2022/01/07 15:40:54;;;;;;;20.48;13.43;;;;;;;3.10;69.07;100088.73;2918431;80;20966;-69
2022/01/07 15:44:55;;;;;;;17.82;11.50;;;;;;;3.13;69.09;100086.38;2909233;81;21012;-69
2022/01/07 15:48:58;;;;;;;15.68;10.30;;;;;;;3.04;69.23;100086.41;2953316;80;20956;-70
2022/01/07 15:52:59;;;;;;;13.50;10.45;;;;;;;2.94;69.42;100087.36;2871832;83;20989;-69
2022/01/07 15:57:01;;;;;;;24.35;11.68;;;;;;;2.90;68.72;100088.95;2871948;82;21028;-70
2022/01/07 16:01:03;;;;;;;13.58;7.90;;;;;;;2.86;68.71;100083.00;2872047;83;21005;-70
2022/01/07 16:05:07;;;;;;;20.00;11.28;;;;;;;2.81;67.91;100077.14;2911999;81;21094;-70
2022/01/07 16:09:08;;;;;;;22.42;11.10;;;;;;;2.90;68.09;100071.39;2953260;80;21003;-69
2022/01/07 16:13:10;;;;;;;12.05;9.33;;;;;;;2.83;67.87;100064.29;2872092;83;20961;-70
2022/01/07 16:17:11;;;;;;;15.10;7.83;;;;;;;2.89;67.38;100065.75;2911943;82;20956;-69
2022/01/07 16:21:13;;;;;;;13.68;10.18;;;;;;;2.92;67.19;100062.12;2953284;80;20979;-70
2022/01/07 16:25:15;;;;;;;18.10;10.45;;;;;;;2.90;67.08;100059.56;2911834;82;21000;-69
2022/01/07 16:29:16;;;;;;;15.35;8.53;;;;;;;2.90;67.00;100066.13;2953297;80;21038;-70
2022/01/07 16:33:18;;;;;;;23.25;13.15;;;;;;;2.87;67.43;100059.73;2911893;82;20992;-70
2022/01/07 16:37:20;;;;;;;18.87;10.20;;;;;;;2.95;67.46;100062.81;2953245;80;21000;-70
2022/01/07 16:41:22;;;;;;;16.25;9.60;;;;;;;2.93;67.65;100056.77;2921925;81;20986;-70
2022/01/07 16:45:24;;;;;;;21.17;12.10;;;;;;;2.92;68.18;100055.55;2911916;82;21043;-69
2022/01/07 16:49:25;;;;;;;16.80;10.63;;;;;;;2.84;68.27;100049.39;2953047;80;21070;-70
2022/01/07 16:53:27;;;;;;;19.25;10.70;;;;;;;2.93;68.14;100057.25;2911930;82;21062;-69
2022/01/07 16:57:30;;;;;;;16.73;11.03;;;;;;;2.88;68.13;100050.09;2910958;80;21007;-70
2022/01/07 17:01:32;;;;;;;22.55;14.23;;;;;;;2.92;68.37;100047.67;2873088;83;21035;-69
2022/01/07 17:05:35;;;;;;;18.10;11.68;;;;;;;3.00;68.34;100054.66;2904877;82;21015;-70
2022/01/07 17:09:37;;;;;;;20.90;12.60;;;;;;;3.03;68.37;100040.52;2873127;83;21022;-70
2022/01/07 17:13:39;;;;;;;16.45;10.05;;;;;;;3.03;68.28;100043.14;2904291;82;21046;-69
2022/01/07 17:17:43;;;;;;;14.70;9.25;;;;;;;3.07;68.13;100045.98;2847742;83;21019;-70
2022/01/07 17:21:44;;;;;;;13.80;9.40;;;;;;;3.05;67.74;100037.34;2904308;81;21018;-70
2022/01/07 17:25:46;;;;;;;18.07;11.85;;;;;;;3.05;67.56;100033.39;2873219;83;20979;-70
2022/01/07 17:29:47;;;;;;;18.35;10.70;;;;;;;3.14;67.51;100034.19;2904698;82;20979;-70
2022/01/07 17:33:52;;;;;;;13.80;8.98;;;;;;;3.15;67.12;100035.92;2873334;83;21046;-69
2022/01/07 17:37:54;;;;;;;14.70;11.68;;;;;;;3.13;67.41;100031.19;2904757;82;21015;-70
2022/01/07 17:41:56;;;;;;;14.33;10.90;;;;;;;3.18;67.03;100034.88;2872998;83;21047;-70
2022/01/07 17:45:59;;;;;;;18.02;10.63;;;;;;;3.18;67.01;100027.86;2904739;82;20984;-69
2022/01/07 17:50:00;;;;;;;17.20;9.83;;;;;;;3.13;67.01;100023.30;2873062;83;21079;-69
2022/01/07 17:54:02;;;;;;;25.45;11.00;;;;;;;3.12;66.51;100021.61;2904552;82;21039;-69
2022/01/07 17:58:04;;;;;;;14.85;10.28;;;;;;;3.10;65.90;100023.47;2918741;81;20999;-69
2022/01/07 18:02:06;;;;;;;28.32;10.88;;;;;;;3.13;65.87;100029.87;2953311;80;20972;-69
2022/01/07 18:06:08;;;;;;;19.52;11.57;;;;;;;3.17;65.69;100023.98;2869784;83;21033;-69
2022/01/07 18:10:11;;;;;;;16.27;11.60;;;;;;;3.13;65.70;100026.79;2922390;80;20970;-69
2022/01/07 18:14:14;;;;;;;19.87;9.83;;;;;;;3.22;65.51;100026.75;2872165;83;21393;-70
2022/01/07 18:18:15;;;;;;;28.80;15.40;;;;;;;3.17;65.75;100020.05;2922192;81;21037;-69
2022/01/07 18:22:17;;;;;;;18.92;13.10;;;;;;;3.22;65.76;100020.17;2872338;83;20977;-69
2022/01/07 18:26:19;;;;;;;16.17;11.22;;;;;;;3.19;65.82;100022.98;2924682;76;21120;-71
2022/01/07 18:30:20;;;;;;;21.82;14.05;;;;;;;3.20;65.33;100025.99;2927097;81;20981;-71
2022/01/07 18:34:23;;;;;;;17.50;10.78;;;;;;;3.22;65.20;100026.75;2919339;79;21069;-74
2022/01/07 18:38:26;;;;;;;16.75;9.53;;;;;;;3.22;64.88;100028.06;2926024;79;20997;-76
2022/01/07 18:42:28;;;;;;;22.00;11.90;;;;;;;3.23;64.79;100018.38;2876862;81;21010;-74
2022/01/07 18:46:29;;;;;;;22.60;10.23;;;;;;;3.36;64.96;100015.94;2928615;80;21002;-76
2022/01/07 18:50:32;;;;;;;18.50;10.20;;;;;;;3.34;64.85;100021.72;2928793;80;20989;-76
2022/01/07 18:54:34;;;;;;;18.00;10.88;;;;;;;3.37;65.00;100017.63;2927629;81;20969;-74
2022/01/07 18:58:37;;;;;;;19.00;10.50;;;;;;;3.46;64.94;100014.95;2928842;81;20996;-76